Electa — ICBQ — position and weather

sailwx.info

Track history (hours):
 
Tides and Currents Weather Stations Pressure Air Temp Water Temp Dewpoint Dewpoint Depression Visibility Wind Speed Wind Dir Waves Ship Positions

Electa

Last reported at 2017-Oct-16 17:05 UTC. Time now 2017-Oct-18 22:32 UTC.
Position S 00°13' W 051°03'.

Length 183 m; draft 11.3 m.

Type: Tanker. MMSI: 247284500.

Date/timePositionNaut miles runAvg speedWind from/ knotsBaromVisibWave heightAir tempDewpointWater temp
2017-Oct-16 17:05S 00°13' W 051°03'114.7
2017-Oct-16 17:00S 00°12' W 051°02'714.3
2017-Oct-16 16:30S 00°05' W 051°01'510.0
2017-Oct-16 16:01S 00°00' W 051°02'510.1
2017-Oct-16 15:30S 00°04' W 051°06'1 1.5
2017-Oct-16 14:55S 00°04' W 051°06'0 0.0
2017-Oct-16 14:25S 00°04' W 051°06'0 0.0
2017-Oct-16 13:25S 00°04' W 051°06'0 0.4
2017-Oct-16 12:55S 00°04' W 051°06'0 0.1
2017-Oct-16 12:25S 00°04' W 051°06'0 0.1
2017-Oct-16 11:55S 00°04' W 051°06'0 0.0
2017-Oct-16 11:25S 00°04' W 051°06'0 0.0
2017-Oct-16 10:55S 00°04' W 051°06'0 0.0
2017-Oct-16 10:25S 00°04' W 051°06'0 0.0
2017-Oct-16 09:55S 00°04' W 051°06'0 0.0
2017-Oct-16 09:25S 00°04' W 051°06'0 0.0
2017-Oct-16 08:58S 00°04' W 051°06'0 0.0
2017-Oct-16 08:28S 00°04' W 051°06'0 0.0
2017-Oct-16 07:58S 00°04' W 051°06'0 0.2
2017-Oct-16 07:30S 00°04' W 051°06'2 4.1
2017-Oct-16 07:00S 00°03' W 051°04'510.3
2017-Oct-16 06:30N 00°01' W 051°01'611.5
2017-Oct-16 06:00N 00°06' W 050°59'612.2
2017-Oct-16 05:30N 00°10' W 050°54'612.6
2017-Oct-16 05:00N 00°10' W 050°47'713.2
2017-Oct-16 04:30N 00°13' W 050°41'174 8.0
2017-Oct-15 06:50S 00°11' W 047°49'411.2
2017-Oct-15 06:28S 00°15' W 047°48'511.7
2017-Oct-15 06:00S 00°20' W 047°48'3 6.8
2017-Oct-15 05:30S 00°23' W 047°47'2 3.0
2017-Oct-15 05:00S 00°25' W 047°46'0 0.0
2017-Oct-15 04:30S 00°25' W 047°46'0 0.0
2017-Oct-15 04:00S 00°25' W 047°46'0 0.0
2017-Oct-15 03:30S 00°25' W 047°46'0 0.0
2017-Oct-15 03:00S 00°25' W 047°46'0 0.0
2017-Oct-15 02:30S 00°25' W 047°46'0 0.2
2017-Oct-15 02:00S 00°24' W 047°46'0 0.3
2017-Oct-15 01:30S 00°24' W 047°46'0 0.1
2017-Oct-15 01:00S 00°25' W 047°46'0 0.0
2017-Oct-15 00:30S 00°25' W 047°46'0 0.0
2017-Oct-15 00:00S 00°25' W 047°46'0 0.2
2017-Oct-14 23:30S 00°24' W 047°46'0 0.2
2017-Oct-14 23:00S 00°24' W 047°46'0 0.1
2017-Oct-14 22:30S 00°24' W 047°46'0 0.3
2017-Oct-14 22:01S 00°24' W 047°46'4 7.5
2017-Oct-14 21:31S 00°23' W 047°42'612.9
2017-Oct-14 21:00S 00°20' W 047°37'612.8
2017-Oct-14 20:31S 00°17' W 047°31'  
Track history (hours):
 
Tides and Currents Weather Stations Pressure Air Temp Water Temp Dewpoint Dewpoint Depression Visibility Wind Speed Wind Dir Waves Ship Positions

Electa

Last reported at 2017-Oct-16 17:05 UTC. Time now 2017-Oct-18 22:32 UTC.
Position S 00°13' W 051°03'.

Length 183 m; draft 11.3 m.

Type: Tanker. MMSI: 247284500.

Date/timePositionNaut miles runAvg speedWind from/ knotsBaromVisibWave heightAir tempDewpointWater temp
2017-Oct-16 17:05S 00°13' W 051°03'114.7
2017-Oct-16 17:00S 00°12' W 051°02'714.3
2017-Oct-16 16:30S 00°05' W 051°01'510.0
2017-Oct-16 16:01S 00°00' W 051°02'510.1
2017-Oct-16 15:30S 00°04' W 051°06'1 1.5
2017-Oct-16 14:55S 00°04' W 051°06'0 0.0
2017-Oct-16 14:25S 00°04' W 051°06'0 0.0
2017-Oct-16 13:25S 00°04' W 051°06'0 0.4
2017-Oct-16 12:55S 00°04' W 051°06'0 0.1
2017-Oct-16 12:25S 00°04' W 051°06'0 0.1
2017-Oct-16 11:55S 00°04' W 051°06'0 0.0
2017-Oct-16 11:25S 00°04' W 051°06'0 0.0
2017-Oct-16 10:55S 00°04' W 051°06'0 0.0
2017-Oct-16 10:25S 00°04' W 051°06'0 0.0
2017-Oct-16 09:55S 00°04' W 051°06'0 0.0
2017-Oct-16 09:25S 00°04' W 051°06'0 0.0
2017-Oct-16 08:58S 00°04' W 051°06'0 0.0
2017-Oct-16 08:28S 00°04' W 051°06'0 0.0
2017-Oct-16 07:58S 00°04' W 051°06'0 0.2
2017-Oct-16 07:30S 00°04' W 051°06'2 4.1
2017-Oct-16 07:00S 00°03' W 051°04'510.3
2017-Oct-16 06:30N 00°01' W 051°01'611.5
2017-Oct-16 06:00N 00°06' W 050°59'612.2
2017-Oct-16 05:30N 00°10' W 050°54'612.6
2017-Oct-16 05:00N 00°10' W 050°47'713.2
2017-Oct-16 04:30N 00°13' W 050°41'174 8.0
2017-Oct-15 06:50S 00°11' W 047°49'411.2
2017-Oct-15 06:28S 00°15' W 047°48'511.7
2017-Oct-15 06:00S 00°20' W 047°48'3 6.8
2017-Oct-15 05:30S 00°23' W 047°47'2 3.0
2017-Oct-15 05:00S 00°25' W 047°46'0 0.0
2017-Oct-15 04:30S 00°25' W 047°46'0 0.0
2017-Oct-15 04:00S 00°25' W 047°46'0 0.0
2017-Oct-15 03:30S 00°25' W 047°46'0 0.0
2017-Oct-15 03:00S 00°25' W 047°46'0 0.0
2017-Oct-15 02:30S 00°25' W 047°46'0 0.2
2017-Oct-15 02:00S 00°24' W 047°46'0 0.3
2017-Oct-15 01:30S 00°24' W 047°46'0 0.1
2017-Oct-15 01:00S 00°25' W 047°46'0 0.0
2017-Oct-15 00:30S 00°25' W 047°46'0 0.0
2017-Oct-15 00:00S 00°25' W 047°46'0 0.2
2017-Oct-14 23:30S 00°24' W 047°46'0 0.2
2017-Oct-14 23:00S 00°24' W 047°46'0 0.1
2017-Oct-14 22:30S 00°24' W 047°46'0 0.3
2017-Oct-14 22:01S 00°24' W 047°46'4 7.5
2017-Oct-14 21:31S 00°23' W 047°42'612.9
2017-Oct-14 21:00S 00°20' W 047°37'612.8
2017-Oct-14 20:31S 00°17' W 047°31'  

Dump ship's entire track history